createdAt,value
2023-03-18T00:00:44.591Z,1.92
2023-03-18T00:03:14.765Z,1.91
2023-03-18T00:05:44.991Z,1.93
2023-03-18T00:08:25.651Z,1.94
2023-03-18T00:10:57.129Z,2.08
2023-03-18T00:13:27.513Z,2.13
2023-03-18T00:15:58.517Z,2.14
2023-03-18T00:18:28.678Z,2.12
2023-03-18T00:20:59.380Z,2.26
2023-03-18T00:23:32.294Z,2.37
2023-03-18T00:26:03.957Z,2.28
2023-03-18T00:28:34.381Z,2.44
2023-03-18T00:31:09.299Z,2.35
2023-03-18T00:33:40.260Z,2.31
2023-03-18T00:36:13.936Z,2.31
2023-03-18T00:38:51.248Z,2.28
2023-03-18T00:41:21.941Z,2.35
2023-03-18T00:43:55.083Z,2.35
2023-03-18T00:46:33.295Z,2.36
2023-03-18T00:49:05.851Z,2.44
2023-03-18T00:51:38.333Z,2.48
2023-03-18T00:54:13.704Z,2.41
2023-03-18T00:56:43.912Z,2.26
2023-03-18T00:59:14.012Z,2.18
2023-03-18T01:01:44.258Z,2.14
2023-03-18T01:04:14.466Z,2.08
2023-03-18T01:06:45.274Z,2.04
2023-03-18T01:09:18.023Z,2.00
2023-03-18T01:11:48.551Z,1.94
2023-03-18T01:14:19.216Z,1.88
2023-03-18T01:16:49.764Z,1.83
2023-03-18T01:19:20.159Z,1.93
2023-03-18T01:21:53.254Z,1.84
2023-03-18T01:24:27.501Z,1.81
2023-03-18T01:26:58.330Z,1.73
2023-03-18T01:29:28.862Z,1.72
2023-03-18T01:32:01.301Z,1.64
2023-03-18T01:34:31.597Z,1.60
2023-03-18T01:37:02.551Z,1.54
2023-03-18T01:39:39.472Z,1.51
2023-03-18T01:42:18.310Z,1.64
2023-03-18T01:44:49.090Z,1.54
2023-03-18T01:47:24.711Z,1.42
2023-03-18T01:50:00.141Z,1.36
2023-03-18T01:52:36.474Z,1.33
2023-03-18T01:55:16.782Z,1.26
2023-03-18T01:57:55.941Z,1.24
2023-03-18T02:00:28.964Z,1.21
2023-03-18T02:02:59.181Z,1.17
2023-03-18T02:05:31.750Z,1.19
2023-03-18T02:08:01.904Z,1.15
2023-03-18T02:10:35.308Z,1.11
2023-03-18T02:13:07.386Z,1.12
2023-03-18T02:15:48.244Z,1.03
2023-03-18T02:18:23.321Z,0.95
2023-03-18T02:21:17.188Z,0.97
2023-03-18T02:23:59.659Z,0.95
2023-03-18T02:26:39.176Z,0.94
2023-03-18T02:29:16.939Z,0.83
2023-03-18T02:31:55.086Z,0.82
2023-03-18T02:34:28.409Z,0.82
2023-03-18T02:37:00.184Z,0.82
2023-03-18T02:39:31.898Z,0.79
2023-03-18T02:42:02.994Z,0.73
2023-03-18T02:44:39.703Z,0.72
2023-03-18T02:47:45.881Z,0.72
2023-03-18T02:50:16.375Z,0.71
2023-03-18T02:52:46.634Z,0.69
2023-03-18T02:55:17.108Z,0.69
2023-03-18T02:57:47.365Z,0.68
2023-03-18T03:00:20.822Z,0.69
2023-03-18T03:02:51.370Z,0.68
2023-03-18T03:05:21.575Z,0.65
2023-03-18T03:07:51.997Z,0.62
2023-03-18T03:10:23.193Z,0.61
2023-03-18T03:12:53.725Z,0.63
2023-03-18T03:15:27.230Z,0.68
2023-03-18T03:18:01.097Z,0.68
2023-03-18T03:20:33.845Z,0.63
2023-03-18T03:23:04.117Z,0.60
2023-03-18T03:25:34.558Z,0.56
2023-03-18T03:28:06.146Z,0.51
2023-03-18T03:30:39.708Z,0.46
2023-03-18T03:33:10.249Z,0.38
2023-03-18T03:35:42.243Z,0.41
2023-03-18T03:38:12.890Z,0.44
2023-03-18T03:40:44.227Z,0.38
2023-03-18T03:43:16.329Z,0.34
2023-03-18T03:45:49.391Z,0.36
2023-03-18T03:48:19.786Z,0.25
2023-03-18T03:50:49.856Z,0.24
2023-03-18T03:53:20.358Z,0.31
2023-03-18T03:55:50.596Z,0.20
2023-03-18T03:58:20.983Z,0.18
2023-03-18T04:00:54.656Z,0.23
2023-03-18T04:03:25.696Z,0.14
2023-03-18T04:05:56.564Z,0.11
2023-03-18T04:08:29.966Z,0.05
2023-03-18T04:11:00.019Z,0.09
2023-03-18T04:13:30.297Z,-0.01
2023-03-18T04:16:03.152Z,0.01
2023-03-18T04:18:33.866Z,-0.01
2023-03-18T04:21:04.171Z,0.06
2023-03-18T04:23:46.579Z,0.01
2023-03-18T04:26:16.703Z,0.03
2023-03-18T04:28:47.121Z,0.09
2023-03-18T04:31:21.949Z,0.09
2023-03-18T04:33:54.630Z,0.06
2023-03-18T04:36:24.957Z,-0.05
2023-03-18T04:38:55.121Z,-0.17
2023-03-18T04:41:25.810Z,-0.09
2023-03-18T04:43:58.678Z,-0.20
2023-03-18T04:46:40.225Z,-0.27
2023-03-18T04:49:11.100Z,-0.31
2023-03-18T04:51:41.561Z,-0.24
2023-03-18T04:54:20.373Z,-0.17
2023-03-18T04:56:51.677Z,-0.19
2023-03-18T04:59:21.787Z,-0.20
2023-03-18T05:01:56.232Z,-0.19
2023-03-18T05:04:26.823Z,-0.05
2023-03-18T05:06:57.220Z,-0.07
2023-03-18T05:09:34.447Z,-0.05
2023-03-18T05:12:04.957Z,-0.03
2023-03-18T05:14:38.702Z,-0.07
2023-03-18T05:17:15.764Z,-0.10
2023-03-18T05:19:51.802Z,-0.09
2023-03-18T05:22:25.011Z,-0.19
2023-03-18T05:25:02.732Z,-0.18
2023-03-18T05:27:34.257Z,-0.17
2023-03-18T05:30:11.324Z,-0.18
2023-03-18T05:32:51.389Z,-0.12
2023-03-18T05:35:22.924Z,-0.08
2023-03-18T05:37:56.154Z,-0.11
2023-03-18T05:40:26.985Z,0.11
2023-03-18T05:43:07.971Z,0.15
2023-03-18T05:46:00.703Z,0.27
2023-03-18T05:49:03.147Z,0.32
2023-03-18T05:51:43.692Z,0.35
2023-03-18T05:54:19.153Z,0.46
2023-03-18T05:56:51.390Z,0.55
2023-03-18T05:59:24.024Z,0.67
2023-03-18T06:01:59.330Z,0.76
2023-03-18T06:04:32.524Z,0.92
2023-03-18T06:07:03.349Z,1.06
2023-03-18T06:09:34.738Z,1.13
2023-03-18T06:12:06.514Z,1.12
2023-03-18T06:14:37.470Z,1.26
2023-03-18T06:17:09.692Z,1.36
2023-03-18T06:19:42.421Z,1.36
2023-03-18T06:22:12.494Z,1.44
2023-03-18T06:24:42.682Z,1.52
2023-03-18T06:27:13.810Z,1.53
2023-03-18T06:29:46.965Z,1.61
2023-03-18T06:32:20.278Z,1.81
2023-03-18T06:34:53.507Z,1.92
2023-03-18T06:37:23.896Z,2.04
2023-03-18T06:39:54.772Z,2.14
2023-03-18T06:42:25.991Z,2.26
2023-03-18T06:45:02.566Z,2.47
2023-03-18T06:47:44.877Z,2.62
2023-03-18T06:50:17.699Z,2.72
2023-03-18T06:52:48.235Z,2.87
2023-03-18T06:55:21.914Z,3.01
2023-03-18T06:57:52.806Z,3.11
2023-03-18T07:00:29.132Z,3.28
2023-03-18T07:02:59.880Z,3.52
2023-03-18T07:05:33.667Z,3.73
2023-03-18T07:08:04.456Z,3.85
2023-03-18T07:10:35.003Z,4.01
2023-03-18T07:13:13.841Z,4.20
2023-03-18T07:15:47.117Z,4.40
2023-03-18T07:18:17.857Z,4.42
2023-03-18T07:20:52.692Z,4.63
2023-03-18T07:23:26.562Z,4.79
2023-03-18T07:25:56.692Z,4.88
2023-03-18T07:28:27.040Z,5.09
2023-03-18T07:30:58.028Z,5.18
2023-03-18T07:33:28.870Z,5.46
2023-03-18T07:36:01.878Z,5.65
2023-03-18T07:38:32.079Z,5.85
2023-03-18T07:41:02.170Z,5.79
2023-03-18T07:43:32.407Z,6.16
2023-03-18T07:46:04.078Z,6.30
2023-03-18T07:48:34.780Z,6.22
2023-03-18T07:51:08.489Z,6.52
2023-03-18T07:53:39.235Z,6.53
2023-03-18T07:56:10.988Z,6.71
2023-03-18T07:58:41.823Z,6.98
2023-03-18T08:01:13.519Z,7.21
2023-03-18T08:03:44.667Z,7.32
2023-03-18T08:06:20.582Z,7.53
2023-03-18T08:08:50.732Z,7.81
2023-03-18T08:11:20.848Z,7.75
2023-03-18T08:13:50.981Z,8.10
2023-03-18T08:16:21.723Z,8.40
2023-03-18T08:18:51.868Z,8.43
2023-03-18T08:21:24.910Z,8.56
2023-03-18T08:23:55.004Z,8.84
2023-03-18T08:26:25.079Z,9.02
2023-03-18T08:28:55.345Z,9.17
2023-03-18T08:31:26.064Z,9.47
2023-03-18T08:33:56.545Z,9.38
2023-03-18T08:36:29.986Z,9.80
2023-03-18T08:39:00.239Z,9.95
2023-03-18T08:41:30.332Z,10.00
2023-03-18T08:44:00.424Z,10.12
2023-03-18T08:46:30.558Z,10.21
2023-03-18T08:49:00.767Z,10.29
2023-03-18T08:51:33.482Z,10.49
2023-03-18T08:54:03.644Z,10.41
2023-03-18T08:56:34.440Z,10.75
2023-03-18T08:59:04.580Z,10.94
2023-03-18T09:01:34.755Z,11.08
2023-03-18T09:04:04.941Z,10.96
2023-03-18T09:06:40.074Z,10.94
2023-03-18T09:09:11.768Z,10.94
2023-03-18T09:11:42.475Z,11.06
2023-03-18T09:14:13.457Z,11.36
2023-03-18T09:16:43.875Z,11.55
2023-03-18T09:19:15.096Z,11.71
2023-03-18T09:21:48.050Z,11.72
2023-03-18T09:24:18.545Z,11.63
2023-03-18T09:26:48.862Z,11.83
2023-03-18T09:29:18.962Z,11.75
2023-03-18T09:31:49.375Z,11.81
2023-03-18T09:34:19.530Z,12.06
2023-03-18T09:36:52.751Z,11.86
2023-03-18T09:39:24.019Z,12.23
2023-03-18T09:42:12.617Z,12.33
2023-03-18T09:44:42.873Z,12.42
2023-03-18T09:47:26.775Z,12.25
2023-03-18T09:50:14.239Z,12.46
2023-03-18T09:52:51.121Z,12.25
2023-03-18T09:55:30.531Z,12.37
2023-03-18T09:58:04.244Z,12.18
2023-03-18T10:00:38.016Z,12.60
2023-03-18T10:03:13.647Z,12.62
2023-03-18T10:05:51.290Z,12.76
2023-03-18T10:08:28.918Z,12.74
2023-03-18T10:10:59.332Z,12.50
2023-03-18T10:13:36.545Z,12.76
2023-03-18T10:16:11.500Z,12.74
2023-03-18T10:18:45.770Z,12.75
2023-03-18T10:21:24.247Z,12.71
2023-03-18T10:24:07.234Z,12.86
2023-03-18T10:26:44.930Z,13.01
2023-03-18T10:29:28.714Z,12.96
2023-03-18T10:32:11.164Z,13.22
2023-03-18T10:35:04.180Z,13.11
2023-03-18T10:37:44.127Z,13.44
2023-03-18T10:40:20.767Z,13.26
2023-03-18T10:42:53.842Z,13.33
2023-03-18T10:45:28.464Z,13.51
2023-03-18T10:48:06.104Z,13.74
2023-03-18T10:50:39.816Z,13.71
2023-03-18T10:53:19.430Z,13.49
2023-03-18T10:56:02.961Z,13.63
2023-03-18T10:58:33.378Z,13.59
2023-03-18T11:01:04.605Z,13.70
2023-03-18T11:03:38.031Z,13.60
2023-03-18T11:06:18.938Z,13.99
2023-03-18T11:08:51.541Z,14.13
2023-03-18T11:11:33.055Z,14.09
2023-03-18T11:14:04.775Z,14.27
2023-03-18T11:16:42.613Z,14.40
2023-03-18T11:19:32.509Z,14.33
2023-03-18T11:22:16.710Z,14.15
2023-03-18T11:24:47.064Z,14.25
2023-03-18T11:27:37.765Z,14.38
2023-03-18T11:30:24.317Z,14.47
2023-03-18T11:33:06.523Z,14.29
2023-03-18T11:35:42.189Z,14.41
2023-03-18T11:38:19.421Z,14.57
2023-03-18T11:40:50.293Z,14.58
2023-03-18T11:43:26.147Z,14.89
2023-03-18T11:46:00.662Z,14.72
2023-03-18T11:48:35.805Z,14.92
2023-03-18T11:51:23.717Z,15.08
2023-03-18T11:54:09.633Z,15.08
2023-03-18T11:56:46.599Z,14.96
2023-03-18T11:59:42.551Z,14.67
2023-03-18T12:02:33.587Z,14.95
2023-03-18T12:05:16.935Z,14.99
2023-03-18T12:08:03.551Z,14.87
2023-03-18T12:10:37.623Z,14.99
2023-03-18T12:13:32.759Z,15.13
2023-03-18T12:16:17.265Z,14.98
2023-03-18T12:19:01.760Z,15.29
2023-03-18T12:21:53.688Z,15.41
2023-03-18T12:24:42.554Z,15.44
2023-03-18T12:27:18.936Z,15.27
2023-03-18T12:30:05.407Z,15.33
2023-03-18T12:32:43.796Z,15.27
2023-03-18T12:35:33.542Z,15.30
2023-03-18T12:38:41.107Z,15.26
2023-03-18T12:41:18.522Z,15.31
2023-03-18T12:43:58.776Z,15.10
2023-03-18T12:46:34.751Z,15.01
2023-03-18T12:49:15.075Z,15.03
2023-03-18T12:51:52.311Z,14.98
2023-03-18T12:54:28.865Z,14.92
2023-03-18T12:57:04.528Z,14.66
2023-03-18T12:59:38.550Z,14.62
2023-03-18T13:02:23.048Z,14.82
2023-03-18T13:05:00.738Z,14.92
2023-03-18T13:07:39.208Z,14.93
2023-03-18T13:10:22.920Z,14.98
2023-03-18T13:12:55.990Z,15.02
2023-03-18T13:15:33.583Z,14.94
2023-03-18T13:18:12.920Z,14.90
2023-03-18T13:20:46.963Z,14.50
2023-03-18T13:23:34.650Z,14.46
2023-03-18T13:26:13.415Z,14.42
2023-03-18T13:28:54.236Z,14.62
2023-03-18T13:31:34.683Z,14.62
2023-03-18T13:34:26.572Z,14.31
2023-03-18T13:37:29.278Z,14.20
2023-03-18T13:40:39.421Z,14.54
2023-03-18T13:43:18.427Z,14.62
2023-03-18T13:45:51.538Z,14.79
2023-03-18T13:48:25.719Z,14.82
2023-03-18T13:50:55.896Z,14.90
2023-03-18T13:53:32.804Z,14.96
2023-03-18T13:56:08.666Z,14.97
2023-03-18T13:58:48.378Z,14.92
2023-03-18T14:01:35.783Z,14.95
2023-03-18T14:04:38.234Z,14.87
2023-03-18T14:07:25.963Z,14.93
2023-03-18T14:10:19.536Z,14.87
2023-03-18T14:12:50.772Z,14.96
2023-03-18T14:15:42.634Z,14.85
2023-03-18T14:18:27.856Z,14.48
2023-03-18T14:21:04.658Z,14.44
2023-03-18T14:23:44.542Z,14.38
2023-03-18T14:26:26.909Z,14.45
2023-03-18T14:29:00.098Z,14.31
2023-03-18T14:31:52.760Z,14.30
2023-03-18T14:34:28.437Z,14.26
2023-03-18T14:37:23.565Z,14.22
2023-03-18T14:39:56.152Z,14.09
2023-03-18T14:42:59.764Z,13.98
2023-03-18T14:45:34.718Z,14.00
2023-03-18T14:48:13.333Z,13.94
2023-03-18T14:50:47.394Z,13.91
2023-03-18T14:53:23.348Z,13.96
2023-03-18T14:55:57.242Z,13.90
2023-03-18T14:58:31.301Z,13.72
2023-03-18T15:01:10.015Z,13.72
2023-03-18T15:03:43.495Z,13.63
2023-03-18T15:06:21.911Z,13.61
2023-03-18T15:08:54.693Z,13.61
2023-03-18T15:11:25.760Z,13.43
2023-03-18T15:14:02.329Z,13.34
2023-03-18T15:16:36.707Z,13.34
2023-03-18T15:19:07.089Z,13.30
2023-03-18T15:21:39.106Z,13.13
2023-03-18T15:24:11.713Z,13.08
2023-03-18T15:26:44.322Z,13.03
2023-03-18T15:29:28.350Z,12.92
2023-03-18T15:32:10.452Z,12.85
2023-03-18T15:34:43.882Z,12.80
2023-03-18T15:37:39.345Z,12.73
2023-03-18T15:40:26.133Z,12.62
2023-03-18T15:42:58.171Z,12.53
2023-03-18T15:45:36.919Z,12.35
2023-03-18T15:48:22.057Z,12.39
2023-03-18T15:50:56.367Z,12.35
2023-03-18T15:53:28.080Z,12.18
2023-03-18T15:55:59.240Z,12.04
2023-03-18T15:58:30.989Z,12.00
2023-03-18T16:01:04.340Z,11.90
2023-03-18T16:03:37.384Z,11.76
2023-03-18T16:06:07.832Z,11.63
2023-03-18T16:08:37.882Z,11.56
2023-03-18T16:11:08.995Z,11.53
2023-03-18T16:13:40.105Z,11.40
2023-03-18T16:16:18.987Z,11.41
2023-03-18T16:18:49.113Z,11.31
2023-03-18T16:21:20.869Z,11.28
2023-03-18T16:23:51.576Z,11.16
2023-03-18T16:26:22.026Z,11.17
2023-03-18T16:28:52.137Z,11.04
2023-03-18T16:31:24.836Z,11.01
2023-03-18T16:33:56.431Z,10.91
2023-03-18T16:36:35.222Z,10.83
2023-03-18T16:39:17.607Z,10.74
2023-03-18T16:41:48.210Z,10.71
2023-03-18T16:44:19.957Z,10.61
2023-03-18T16:46:56.897Z,10.72
2023-03-18T16:49:33.782Z,10.55
2023-03-18T16:52:04.494Z,10.46
2023-03-18T16:54:39.498Z,10.34
2023-03-18T16:57:17.197Z,10.18
2023-03-18T16:59:51.365Z,10.05
2023-03-18T17:02:33.968Z,9.97
2023-03-18T17:05:05.699Z,9.83
2023-03-18T17:07:37.137Z,9.72
2023-03-18T17:10:09.120Z,9.68
2023-03-18T17:12:42.457Z,9.57
2023-03-18T17:15:17.864Z,9.55
2023-03-18T17:17:53.203Z,9.42
2023-03-18T17:20:25.457Z,9.34
2023-03-18T17:22:55.902Z,9.27
2023-03-18T17:25:29.026Z,9.20
2023-03-18T17:28:01.335Z,9.19
2023-03-18T17:30:36.362Z,9.14
2023-03-18T17:33:24.201Z,9.13
2023-03-18T17:35:55.118Z,9.07
2023-03-18T17:38:25.492Z,9.07
2023-03-18T17:40:56.900Z,9.04
2023-03-18T17:43:30.957Z,8.97
2023-03-18T17:46:03.227Z,8.95
2023-03-18T17:48:37.965Z,8.89
2023-03-18T17:51:10.403Z,8.82
2023-03-18T17:53:43.186Z,8.75
2023-03-18T17:56:16.614Z,8.77
2023-03-18T17:58:49.099Z,8.71
2023-03-18T18:01:22.150Z,8.64
2023-03-18T18:03:55.571Z,8.57
2023-03-18T18:06:29.192Z,8.50
2023-03-18T18:09:01.341Z,8.44
2023-03-18T18:11:33.485Z,8.38
2023-03-18T18:14:05.409Z,8.30
2023-03-18T18:16:36.267Z,8.25
2023-03-18T18:19:10.453Z,8.19
2023-03-18T18:21:41.156Z,8.22
2023-03-18T18:24:18.836Z,8.18
2023-03-18T18:26:49.100Z,8.10
2023-03-18T18:29:22.535Z,8.07
2023-03-18T18:31:54.025Z,7.96
2023-03-18T18:34:27.049Z,7.87
2023-03-18T18:36:57.242Z,7.78
2023-03-18T18:39:27.375Z,7.70
2023-03-18T18:41:57.512Z,7.62
2023-03-18T18:44:28.599Z,7.56
2023-03-18T18:46:59.112Z,7.50
2023-03-18T18:49:32.601Z,7.51
2023-03-18T18:52:05.668Z,7.53
2023-03-18T18:54:35.965Z,7.48
2023-03-18T18:57:07.564Z,7.65
2023-03-18T18:59:37.854Z,7.75
2023-03-18T19:02:24.826Z,7.66
2023-03-18T19:04:58.254Z,7.59
2023-03-18T19:07:32.093Z,7.57
2023-03-18T19:10:02.427Z,7.47
2023-03-18T19:12:32.633Z,7.44
2023-03-18T19:15:02.874Z,7.44
2023-03-18T19:17:32.959Z,7.52
2023-03-18T19:20:07.809Z,7.61
2023-03-18T19:22:38.052Z,7.65
2023-03-18T19:25:09.962Z,7.67
2023-03-18T19:27:40.261Z,7.78
2023-03-18T19:30:23.961Z,7.79
2023-03-18T19:32:54.322Z,7.77
2023-03-18T19:35:27.433Z,7.85
2023-03-18T19:38:00.887Z,7.78
2023-03-18T19:40:34.281Z,7.77
2023-03-18T19:43:04.375Z,7.71
2023-03-18T19:45:38.147Z,7.64
2023-03-18T19:48:08.514Z,7.71
2023-03-18T19:50:41.705Z,7.59
2023-03-18T19:53:14.583Z,7.57
2023-03-18T19:55:45.414Z,7.51
2023-03-18T19:58:24.175Z,7.57
2023-03-18T20:00:55.714Z,7.61
2023-03-18T20:03:27.057Z,7.55
2023-03-18T20:06:00.462Z,7.52
2023-03-18T20:08:30.661Z,7.45
2023-03-18T20:11:01.136Z,7.36
2023-03-18T20:13:31.772Z,7.31
2023-03-18T20:16:02.112Z,7.31
2023-03-18T20:18:32.228Z,7.21
2023-03-18T20:21:05.392Z,7.12
2023-03-18T20:23:36.535Z,7.13
2023-03-18T20:26:07.247Z,7.10
2023-03-18T20:28:41.511Z,7.16
2023-03-18T20:31:12.796Z,7.08
2023-03-18T20:33:43.023Z,7.02
2023-03-18T20:36:19.246Z,7.01
2023-03-18T20:38:52.452Z,6.99
2023-03-18T20:41:23.696Z,6.96
2023-03-18T20:43:53.837Z,6.89
2023-03-18T20:46:25.615Z,6.87
2023-03-18T20:48:56.664Z,6.79
2023-03-18T20:51:34.942Z,6.81
2023-03-18T20:54:05.978Z,6.70
2023-03-18T20:56:36.201Z,6.72
2023-03-18T20:59:07.281Z,6.76
2023-03-18T21:01:37.444Z,6.78
2023-03-18T21:04:08.193Z,6.71
2023-03-18T21:06:41.425Z,6.66
2023-03-18T21:09:14.081Z,6.64
2023-03-18T21:11:44.219Z,6.60
2023-03-18T21:14:18.203Z,6.53
2023-03-18T21:16:49.188Z,6.54
2023-03-18T21:19:19.242Z,6.47
2023-03-18T21:21:51.871Z,6.43
2023-03-18T21:24:27.996Z,6.42
2023-03-18T21:27:04.627Z,6.35
2023-03-18T21:29:35.521Z,6.38
2023-03-18T21:32:09.278Z,6.32
2023-03-18T21:34:39.398Z,6.23
2023-03-18T21:37:18.355Z,6.15
2023-03-18T21:39:48.764Z,6.09
2023-03-18T21:42:25.837Z,6.02
2023-03-18T21:44:56.749Z,5.98
2023-03-18T21:47:28.595Z,5.98
2023-03-18T21:49:58.648Z,5.87
2023-03-18T21:52:34.226Z,5.82
2023-03-18T21:55:05.571Z,5.78
2023-03-18T21:57:37.219Z,5.77
2023-03-18T22:00:08.563Z,5.74
2023-03-18T22:02:40.798Z,5.72
2023-03-18T22:05:15.525Z,5.67
2023-03-18T22:07:48.794Z,5.64
2023-03-18T22:10:20.029Z,5.65
2023-03-18T22:12:50.131Z,5.60
2023-03-18T22:15:39.575Z,5.54
2023-03-18T22:18:10.350Z,5.48
2023-03-18T22:20:41.418Z,5.42
2023-03-18T22:23:25.527Z,5.34
2023-03-18T22:25:57.431Z,5.35
2023-03-18T22:28:29.325Z,5.30
2023-03-18T22:31:02.702Z,5.27
2023-03-18T22:33:35.809Z,5.26
2023-03-18T22:36:06.051Z,5.22
2023-03-18T22:38:38.714Z,5.21
2023-03-18T22:41:09.266Z,5.11
2023-03-18T22:43:40.922Z,5.07
2023-03-18T22:46:13.990Z,5.08
2023-03-18T22:48:44.255Z,5.03
2023-03-18T22:51:25.057Z,5.05
2023-03-18T22:53:58.248Z,4.91
2023-03-18T22:56:28.608Z,4.92
2023-03-18T22:58:58.658Z,4.85
2023-03-18T23:01:32.623Z,4.80
2023-03-18T23:04:02.700Z,4.78
2023-03-18T23:06:32.926Z,4.66
2023-03-18T23:09:05.768Z,4.61
2023-03-18T23:11:37.509Z,4.59
2023-03-18T23:14:07.628Z,4.60
2023-03-18T23:16:37.896Z,4.60
2023-03-18T23:19:08.214Z,4.56
2023-03-18T23:21:38.320Z,4.52
2023-03-18T23:24:15.425Z,4.49
2023-03-18T23:26:45.754Z,4.45
2023-03-18T23:29:15.754Z,4.45
2023-03-18T23:31:46.027Z,4.41
2023-03-18T23:34:16.142Z,4.35
2023-03-18T23:36:47.021Z,4.38
2023-03-18T23:39:20.345Z,4.34
2023-03-18T23:41:51.026Z,4.30
2023-03-18T23:44:21.308Z,4.29
2023-03-18T23:46:51.824Z,4.21
2023-03-18T23:49:21.981Z,4.19
2023-03-18T23:51:52.880Z,4.18
2023-03-18T23:54:31.713Z,4.16
2023-03-18T23:57:03.847Z,3.97
2023-03-18T23:59:34.193Z,3.90
